Time;durP1;ratioP1;P1;durP2;ratioP2;P2;SDS_P1;SDS_P2;PMS_P1;PMS_P2;Temp;Humidity;BMP_temperature;BMP_pressure;BME280_temperature;BME280_humidity;BME280_pressure;Samples;Min_cycle;Max_cycle;Signal;HPM_P1;HPM_P2
2022/10/18 00:01:04;;;;;;;30.25;6.10;;;15.80;99.90;;;;;;5015727;28;20032;-63
2022/10/18 00:03:29;;;;;;;18.65;4.60;;;15.80;99.90;;;;;;5021610;28;20021;-63
2022/10/18 00:05:55;;;;;;;26.75;4.75;;;15.80;99.90;;;;;;5014020;28;20029;-63
2022/10/18 00:08:21;;;;;;;7.65;3.70;;;15.80;99.90;;;;;;5034494;28;20026;-63
2022/10/18 00:10:46;;;;;;;32.30;4.20;;;15.70;99.90;;;;;;5014354;28;20030;-63
2022/10/18 00:13:12;;;;;;;15.50;4.05;;;15.70;99.90;;;;;;5012951;28;20458;-63
2022/10/18 00:15:38;;;;;;;12.40;4.00;;;15.70;99.90;;;;;;5015860;28;20030;-63
2022/10/18 00:18:03;;;;;;;8.02;4.30;;;15.70;99.90;;;;;;5013281;28;20041;-63
2022/10/18 00:20:29;;;;;;;49.38;8.07;;;15.70;99.90;;;;;;5014762;28;20014;-63
2022/10/18 00:22:55;;;;;;;5.45;4.95;;;15.70;99.90;;;;;;5012856;28;20108;-63
2022/10/18 00:25:20;;;;;;;6.07;5.55;;;15.70;99.90;;;;;;5015289;28;20143;-63
2022/10/18 00:27:46;;;;;;;14.43;5.15;;;15.70;99.90;;;;;;5010746;28;20061;-63
2022/10/18 00:30:12;;;;;;;8.48;5.20;;;15.70;99.90;;;;;;5024841;28;20045;-63
2022/10/18 00:32:39;;;;;;;18.90;5.03;;;15.70;99.90;;;;;;5013512;28;21464;-63
2022/10/18 00:35:05;;;;;;;32.30;4.25;;;15.70;99.90;;;;;;5012526;28;20101;-63
2022/10/18 00:37:32;;;;;;;8.48;3.92;;;15.70;99.90;;;;;;5013282;28;20033;-63
2022/10/18 00:39:58;;;;;;;8.05;3.42;;;15.70;99.90;;;;;;5011315;28;20022;-64
2022/10/18 00:42:29;;;;;;;14.88;3.38;;;15.60;99.90;;;;;;5024266;28;20049;-63
2022/10/18 00:45:04;;;;;;;11.18;3.40;;;15.60;99.90;;;;;;5012732;28;20098;-63
2022/10/18 00:47:31;;;;;;;4.25;3.85;;;15.70;99.90;;;;;;5012602;28;20030;-63
2022/10/18 00:50:01;;;;;;;26.63;3.58;;;15.60;99.90;;;;;;5013104;28;20030;-64
2022/10/18 00:52:36;;;;;;;31.02;3.70;;;15.60;99.90;;;;;;5017852;28;20071;-63
2022/10/18 00:55:04;;;;;;;4.88;3.38;;;15.70;99.90;;;;;;5017507;28;20022;-63
2022/10/18 00:57:30;;;;;;;15.88;4.20;;;15.60;99.90;;;;;;5010305;28;20045;-63
2022/10/18 00:59:56;;;;;;;8.57;3.80;;;15.70;99.90;;;;;;5010713;28;20490;-63
2022/10/18 01:02:22;;;;;;;9.95;3.15;;;15.60;99.90;;;;;;5012628;28;20034;-63
2022/10/18 01:04:48;;;;;;;3.83;3.17;;;15.60;99.90;;;;;;5011791;28;20022;-63
2022/10/18 01:07:29;;;;;;;18.10;4.13;;;15.60;99.90;;;;;;5012870;28;20104;-63
2022/10/18 01:10:17;;;;;;;13.68;4.40;;;15.60;99.90;;;;;;5014188;28;20026;-63
2022/10/18 01:13:20;;;;;;;19.98;4.18;;;15.60;99.90;;;;;;5011301;28;20486;-63
2022/10/18 01:16:04;;;;;;;28.23;3.97;;;15.60;99.90;;;;;;5010749;28;20037;-63
2022/10/18 01:19:06;;;;;;;18.02;3.58;;;15.60;99.90;;;;;;5016449;28;20018;-63
2022/10/18 01:21:39;;;;;;;27.80;3.78;;;15.60;99.90;;;;;;5019261;28;20036;-63
2022/10/18 01:24:30;;;;;;;9.77;3.40;;;15.50;99.90;;;;;;5009157;28;20037;-63
2022/10/18 01:27:41;;;;;;;23.02;2.97;;;15.50;99.90;;;;;;5012863;28;20474;-63
2022/10/18 01:30:25;;;;;;;12.93;2.20;;;15.50;99.90;;;;;;5011486;28;20029;-63
2022/10/18 01:32:56;;;;;;;15.52;2.63;;;15.40;99.90;;;;;;5009694;28;20097;-63
2022/10/18 01:35:36;;;;;;;7.55;1.92;;;15.40;99.90;;;;;;5009659;28;20033;-63
2022/10/18 01:38:06;;;;;;;5.88;2.00;;;15.40;99.90;;;;;;5013626;28;20509;-63
2022/10/18 01:40:33;;;;;;;2.97;1.67;;;15.30;99.90;;;;;;5011606;28;20041;-63
2022/10/18 01:43:00;;;;;;;1.65;1.50;;;15.30;99.90;;;;;;5012709;28;20041;-63
2022/10/18 01:45:27;;;;;;;2.83;2.10;;;15.30;99.90;;;;;;5011229;28;20509;-63
2022/10/18 01:47:53;;;;;;;2.83;2.10;;;15.30;99.90;;;;;;5009301;28;20486;-63
2022/10/18 01:50:31;;;;;;;2.40;2.20;;;15.30;99.90;;;;;;5014950;28;20044;-63
2022/10/18 01:52:57;;;;;;;3.58;3.20;;;15.40;99.90;;;;;;5014908;28;20025;-63
2022/10/18 01:55:47;;;;;;;5.72;3.60;;;15.40;99.90;;;;;;5015279;28;20116;-63
2022/10/18 01:58:35;;;;;;;4.60;4.10;;;15.40;99.90;;;;;;5020767;28;20133;-63
2022/10/18 02:01:12;;;;;;;5.00;3.53;;;15.40;99.90;;;;;;5016861;28;20025;-63
2022/10/18 02:03:44;;;;;;;3.67;3.35;;;15.40;99.90;;;;;;5029928;28;20068;-63
2022/10/18 02:06:21;;;;;;;3.47;3.10;;;15.50;99.90;;;;;;5012796;28;20046;-63
2022/10/18 02:09:08;;;;;;;4.97;3.47;;;15.50;99.90;;;;;;5028187;28;20018;-63
2022/10/18 02:11:36;;;;;;;5.20;3.38;;;15.50;99.90;;;;;;5015691;28;20037;-63
2022/10/18 02:14:06;;;;;;;4.60;4.20;;;15.40;99.90;;;;;;5018104;28;20505;-63
2022/10/18 02:16:39;;;;;;;7.22;4.25;;;15.50;99.90;;;;;;5016082;28;20477;-63
2022/10/18 02:19:13;;;;;;;6.43;4.05;;;15.50;99.90;;;;;;5014125;28;20032;-63
2022/10/18 02:21:42;;;;;;;23.48;5.40;;;15.50;99.90;;;;;;5023582;28;20392;-63
2022/10/18 02:24:10;;;;;;;21.17;4.80;;;15.50;99.90;;;;;;5018258;28;20026;-63
2022/10/18 02:26:35;;;;;;;15.43;5.15;;;15.50;99.90;;;;;;5028818;28;20382;-63
2022/10/18 02:29:01;;;;;;;17.15;5.78;;;15.50;99.90;;;;;;5027277;28;20092;-63
2022/10/18 02:31:38;;;;;;;19.33;5.22;;;15.50;99.90;;;;;;5018990;28;20033;-63
2022/10/18 02:34:21;;;;;;;13.90;5.53;;;15.50;99.90;;;;;;5017694;28;20022;-63
2022/10/18 02:36:53;;;;;;;12.68;5.68;;;15.50;99.90;;;;;;5016203;28;20029;-63
2022/10/18 02:39:35;;;;;;;18.00;5.80;;;15.50;99.90;;;;;;5012623;28;20065;-63
2022/10/18 02:42:06;;;;;;;13.20;5.45;;;15.50;99.90;;;;;;5014071;28;20065;-63
2022/10/18 02:44:33;;;;;;;17.83;5.47;;;15.50;99.90;;;;;;5010904;28;20010;-63
2022/10/18 02:46:59;;;;;;;13.52;5.10;;;15.50;99.90;;;;;;5011935;28;20041;-63
2022/10/18 02:49:24;;;;;;;12.60;5.32;;;15.50;99.90;;;;;;5012434;28;20065;-63
2022/10/18 02:51:50;;;;;;;16.55;6.00;;;15.50;99.90;;;;;;5015432;28;20568;-63
2022/10/18 02:54:15;;;;;;;19.67;5.68;;;15.50;99.90;;;;;;5013962;28;20029;-64
2022/10/18 02:56:41;;;;;;;13.75;6.35;;;15.50;99.90;;;;;;5030293;28;20432;-63
2022/10/18 02:59:07;;;;;;;13.35;5.88;;;15.40;99.90;;;;;;5021764;28;20029;-63
2022/10/18 03:01:34;;;;;;;11.23;5.18;;;15.40;99.90;;;;;;5012760;28;20029;-64
2022/10/18 03:04:00;;;;;;;9.82;4.97;;;15.40;99.90;;;;;;5011209;28;20481;-63
2022/10/18 03:06:26;;;;;;;9.60;5.68;;;15.40;99.90;;;;;;5013984;28;20112;-63
2022/10/18 03:08:52;;;;;;;12.55;5.32;;;15.40;99.90;;;;;;5018378;28;20097;-64
2022/10/18 03:11:17;;;;;;;8.93;5.78;;;15.40;99.90;;;;;;5010812;28;20156;-63
2022/10/18 03:13:43;;;;;;;18.95;5.32;;;15.40;99.90;;;;;;5024891;28;20520;-63
2022/10/18 03:16:08;;;;;;;17.52;5.53;;;15.40;99.90;;;;;;5013712;28;20047;-63
2022/10/18 03:18:34;;;;;;;13.98;5.18;;;15.50;99.90;;;;;;5017549;28;20498;-63
2022/10/18 03:21:06;;;;;;;12.55;5.00;;;15.40;99.90;;;;;;5027799;28;20036;-63
2022/10/18 03:23:32;;;;;;;12.88;4.93;;;15.40;99.90;;;;;;5018004;28;20025;-63
2022/10/18 03:25:58;;;;;;;18.60;5.15;;;15.40;99.90;;;;;;5013223;28;20461;-64
2022/10/18 03:28:23;;;;;;;17.30;5.22;;;15.40;99.90;;;;;;5017756;28;20474;-63
2022/10/18 03:30:49;;;;;;;13.00;5.00;;;15.40;99.90;;;;;;5014718;28;20032;-63
2022/10/18 03:33:14;;;;;;;9.30;5.38;;;15.40;99.90;;;;;;5015403;28;20033;-63
2022/10/18 03:35:40;;;;;;;12.02;5.55;;;15.40;99.90;;;;;;5010033;28;20031;-63
2022/10/18 03:38:05;;;;;;;15.38;5.15;;;15.30;99.90;;;;;;5020543;28;20036;-63
2022/10/18 03:40:31;;;;;;;14.05;5.55;;;15.30;99.90;;;;;;5012851;28;20030;-63
2022/10/18 03:42:57;;;;;;;11.57;5.10;;;15.40;99.90;;;;;;5031279;28;88414;-63
2022/10/18 03:45:22;;;;;;;13.07;5.95;;;15.40;99.90;;;;;;5022847;28;20042;-63
2022/10/18 03:47:48;;;;;;;19.27;7.65;;;15.30;99.90;;;;;;5018174;28;20439;-63
2022/10/18 03:50:13;;;;;;;18.38;6.30;;;15.40;99.90;;;;;;5025821;28;20036;-63
2022/10/18 03:52:39;;;;;;;16.92;6.55;;;15.30;99.90;;;;;;5018950;28;20496;-63
2022/10/18 03:55:05;;;;;;;20.90;6.20;;;15.30;99.90;;;;;;5014875;28;20018;-63
2022/10/18 03:57:31;;;;;;;25.17;5.85;;;15.30;99.90;;;;;;5016281;28;20037;-63
2022/10/18 03:59:56;;;;;;;9.13;6.45;;;15.30;99.90;;;;;;5016379;28;20371;-63
2022/10/18 04:02:22;;;;;;;7.80;5.70;;;15.30;99.90;;;;;;5017225;28;20034;-63
2022/10/18 04:04:48;;;;;;;14.48;5.85;;;15.30;99.90;;;;;;5014552;28;20041;-63
2022/10/18 04:07:13;;;;;;;12.60;5.72;;;15.30;99.90;;;;;;5013648;28;20028;-63
2022/10/18 04:09:39;;;;;;;21.98;5.75;;;15.20;99.90;;;;;;5014664;28;20029;-63
2022/10/18 04:12:05;;;;;;;18.85;5.57;;;15.20;99.90;;;;;;5015518;28;20022;-64
2022/10/18 04:14:30;;;;;;;17.15;6.43;;;15.20;99.90;;;;;;5013391;28;20572;-63
2022/10/18 04:16:56;;;;;;;21.17;5.75;;;15.20;99.90;;;;;;5011912;28;20026;-63
2022/10/18 04:19:21;;;;;;;15.15;5.30;;;15.30;99.90;;;;;;5017651;28;20037;-63
2022/10/18 04:21:47;;;;;;;15.82;5.45;;;15.20;99.90;;;;;;5012502;28;20109;-63
2022/10/18 04:24:12;;;;;;;12.68;6.20;;;15.20;99.90;;;;;;5012161;28;20041;-63
2022/10/18 04:26:38;;;;;;;14.38;5.80;;;15.20;99.90;;;;;;5015499;28;20041;-63
2022/10/18 04:29:03;;;;;;;9.88;6.07;;;15.20;99.90;;;;;;5013276;28;20021;-63
2022/10/18 04:31:29;;;;;;;14.23;5.60;;;15.20;99.90;;;;;;5012861;28;20727;-63
2022/10/18 04:33:54;;;;;;;16.13;5.88;;;15.20;99.90;;;;;;5018983;28;20544;-63
2022/10/18 04:36:20;;;;;;;7.93;5.72;;;15.20;99.90;;;;;;5014197;28;20084;-63
2022/10/18 04:38:45;;;;;;;7.63;6.15;;;15.20;99.90;;;;;;5013200;28;20045;-63
2022/10/18 04:41:11;;;;;;;8.60;5.50;;;15.20;99.90;;;;;;5016228;28;20524;-63
2022/10/18 04:43:36;;;;;;;12.40;5.72;;;15.20;99.90;;;;;;5024450;28;20040;-63
2022/10/18 04:46:02;;;;;;;8.80;5.95;;;15.20;99.90;;;;;;5018029;28;20500;-63
2022/10/18 04:48:27;;;;;;;7.90;5.00;;;15.20;99.90;;;;;;5016557;28;20022;-63
2022/10/18 04:50:53;;;;;;;11.35;5.30;;;15.20;99.90;;;;;;5014378;28;20026;-63
2022/10/18 04:53:18;;;;;;;6.10;5.50;;;15.20;99.90;;;;;;5012561;28;20030;-63
2022/10/18 04:55:47;;;;;;;9.13;5.32;;;15.20;99.90;;;;;;5015817;28;20485;-63
2022/10/18 04:58:13;;;;;;;7.47;5.28;;;15.20;99.90;;;;;;5013081;28;20034;-63
2022/10/18 05:00:39;;;;;;;13.80;5.85;;;15.20;99.90;;;;;;5014399;28;20029;-63
2022/10/18 05:03:05;;;;;;;14.20;5.70;;;15.20;99.90;;;;;;5014580;28;20409;-63
2022/10/18 05:05:31;;;;;;;10.30;6.40;;;15.20;99.90;;;;;;5013262;28;20029;-63
2022/10/18 05:07:56;;;;;;;10.93;5.95;;;15.20;99.90;;;;;;5015531;28;20021;-63
2022/10/18 05:10:22;;;;;;;10.68;5.82;;;15.20;99.90;;;;;;5014616;28;20038;-63
2022/10/18 05:12:48;;;;;;;11.43;6.43;;;15.20;99.90;;;;;;5012680;28;20072;-63
2022/10/18 05:15:13;;;;;;;8.18;6.65;;;15.10;99.90;;;;;;5013428;28;20033;-63
2022/10/18 05:17:39;;;;;;;7.05;5.60;;;15.10;99.90;;;;;;5015368;28;20080;-63
2022/10/18 05:20:05;;;;;;;7.07;6.32;;;15.20;99.90;;;;;;5023163;28;20032;-63
2022/10/18 05:22:30;;;;;;;7.25;5.68;;;15.10;99.90;;;;;;5029412;28;20022;-64
2022/10/18 05:24:56;;;;;;;8.70;6.35;;;15.10;99.90;;;;;;5030345;28;20025;-63
2022/10/18 05:27:21;;;;;;;7.43;6.10;;;15.10;99.90;;;;;;5030432;28;20026;-63
2022/10/18 05:29:47;;;;;;;15.73;6.32;;;15.10;99.90;;;;;;5031058;28;20044;-63
2022/10/18 05:32:13;;;;;;;12.02;5.55;;;15.10;99.90;;;;;;5031747;28;20474;-63
2022/10/18 05:34:38;;;;;;;12.70;5.40;;;15.10;99.90;;;;;;5032342;28;20429;-63
2022/10/18 05:37:04;;;;;;;14.43;5.50;;;15.10;99.90;;;;;;5032222;28;20036;-63
2022/10/18 05:39:30;;;;;;;12.80;5.35;;;15.10;99.90;;;;;;5032250;28;20025;-63
2022/10/18 05:41:56;;;;;;;8.35;5.70;;;15.00;99.90;;;;;;5030744;28;20061;-63
2022/10/18 05:44:22;;;;;;;7.82;5.63;;;15.00;99.90;;;;;;5018505;28;20018;-63
2022/10/18 05:46:47;;;;;;;11.30;4.88;;;15.00;99.90;;;;;;5032155;28;20029;-63
2022/10/18 05:49:13;;;;;;;9.63;5.57;;;15.00;99.90;;;;;;5031809;28;20076;-63
2022/10/18 05:51:39;;;;;;;6.18;4.63;;;14.90;99.90;;;;;;5030508;28;20027;-63
2022/10/18 05:54:04;;;;;;;9.10;4.97;;;14.90;99.90;;;;;;5021881;28;20026;-64
2022/10/18 05:56:30;;;;;;;9.40;5.32;;;14.90;99.90;;;;;;5034445;28;20025;-63
2022/10/18 05:58:55;;;;;;;9.05;5.60;;;14.90;99.90;;;;;;5032845;28;20025;-63
2022/10/18 06:01:21;;;;;;;11.55;6.15;;;14.90;99.90;;;;;;5042890;28;20057;-63
2022/10/18 06:03:47;;;;;;;9.05;6.50;;;14.90;99.90;;;;;;5031418;28;20025;-63
2022/10/18 06:06:13;;;;;;;16.50;6.00;;;14.90;99.90;;;;;;5031527;28;20379;-63
2022/10/18 06:08:40;;;;;;;12.18;6.75;;;14.90;99.90;;;;;;5033100;28;20040;-63
2022/10/18 06:11:14;;;;;;;10.68;5.93;;;14.90;99.90;;;;;;5032025;28;20025;-63
2022/10/18 06:13:41;;;;;;;8.00;5.95;;;14.80;99.90;;;;;;5029757;28;20021;-63
2022/10/18 06:16:07;;;;;;;9.77;5.93;;;14.90;99.90;;;;;;5030615;28;20022;-63
2022/10/18 06:18:33;;;;;;;12.38;6.13;;;14.80;99.90;;;;;;5023953;28;20426;-63
2022/10/18 06:20:58;;;;;;;6.95;5.70;;;14.80;99.90;;;;;;5027349;28;20540;-63
2022/10/18 06:23:27;;;;;;;7.85;5.68;;;14.80;99.90;;;;;;5013559;28;20030;-63
2022/10/18 06:25:57;;;;;;;8.73;5.88;;;14.90;99.90;;;;;;5028733;28;20359;-63
2022/10/18 06:28:22;;;;;;;9.32;6.00;;;14.80;99.90;;;;;;5028948;28;20033;-64
2022/10/18 06:30:48;;;;;;;11.80;5.50;;;14.80;99.90;;;;;;5029862;28;20025;-63
2022/10/18 06:33:13;;;;;;;8.15;5.13;;;14.80;99.90;;;;;;5022485;28;20390;-64
2022/10/18 06:35:41;;;;;;;13.18;5.68;;;14.80;99.90;;;;;;5032521;28;20108;-63
2022/10/18 06:38:06;;;;;;;14.93;5.38;;;14.80;99.90;;;;;;5034488;28;20156;-64
2022/10/18 06:40:36;;;;;;;15.43;5.65;;;14.80;99.90;;;;;;5034908;28;20528;-63
2022/10/18 06:43:05;;;;;;;23.60;5.97;;;14.80;99.90;;;;;;5022185;28;20040;-63
2022/10/18 06:45:31;;;;;;;10.65;5.68;;;14.80;99.90;;;;;;5035102;28;20017;-63
2022/10/18 06:47:57;;;;;;;12.80;5.78;;;14.80;99.90;;;;;;5033719;28;20039;-63
2022/10/18 06:50:23;;;;;;;17.05;6.10;;;14.80;99.90;;;;;;5034875;28;20100;-63
2022/10/18 06:52:50;;;;;;;15.15;5.75;;;14.80;99.90;;;;;;5021993;28;20543;-63
2022/10/18 06:55:16;;;;;;;17.20;6.03;;;14.80;99.90;;;;;;5021577;28;20044;-63
2022/10/18 06:57:41;;;;;;;14.85;5.35;;;14.80;99.90;;;;;;5034902;28;20382;-63
2022/10/18 07:00:07;;;;;;;9.82;4.78;;;14.70;99.90;;;;;;5035062;28;20029;-63
2022/10/18 07:02:33;;;;;;;12.48;5.43;;;14.70;99.90;;;;;;5021897;28;20105;-63
2022/10/18 07:04:58;;;;;;;11.48;4.95;;;14.70;99.90;;;;;;5034351;28;20113;-63
2022/10/18 07:07:24;;;;;;;9.50;5.28;;;14.80;99.90;;;;;;5034768;28;20018;-63
2022/10/18 07:09:49;;;;;;;8.90;5.03;;;14.80;99.90;;;;;;5034081;28;20021;-63
2022/10/18 07:12:16;;;;;;;7.82;5.38;;;14.80;99.90;;;;;;5034360;28;20030;-63
2022/10/18 07:14:42;;;;;;;6.18;4.95;;;14.80;99.90;;;;;;5019352;28;20063;-63
2022/10/18 07:17:08;;;;;;;10.35;5.65;;;14.70;99.90;;;;;;5034594;28;20112;-63
2022/10/18 07:19:33;;;;;;;7.70;5.13;;;14.70;99.90;;;;;;5032848;28;20596;-64
2022/10/18 07:21:59;;;;;;;6.10;4.53;;;14.70;99.90;;;;;;5032763;28;20033;-63
2022/10/18 07:24:24;;;;;;;6.53;5.93;;;14.70;99.90;;;;;;5033309;28;20026;-63
2022/10/18 07:26:50;;;;;;;7.57;5.88;;;14.70;99.90;;;;;;5033224;28;20034;-63
2022/10/18 07:29:15;;;;;;;7.10;5.15;;;14.60;99.90;;;;;;5030379;28;20025;-63
2022/10/18 07:31:41;;;;;;;5.03;4.00;;;14.60;99.90;;;;;;5030481;28;20222;-63
2022/10/18 07:34:10;;;;;;;6.00;4.15;;;14.70;99.90;;;;;;5030460;28;20429;-63
2022/10/18 07:36:36;;;;;;;4.93;4.07;;;14.70;99.90;;;;;;5028954;28;20025;-63
2022/10/18 07:39:02;;;;;;;8.23;3.85;;;14.70;99.90;;;;;;5030975;28;20041;-63
2022/10/18 07:41:28;;;;;;;4.28;3.65;;;14.80;99.90;;;;;;5028043;28;20025;-63
2022/10/18 07:43:54;;;;;;;7.68;4.60;;;14.80;99.90;;;;;;5031686;28;20051;-63
2022/10/18 07:46:21;;;;;;;10.20;4.90;;;14.90;99.90;;;;;;5032182;28;20025;-63
2022/10/18 07:48:46;;;;;;;8.32;4.72;;;14.80;99.90;;;;;;5032014;28;20020;-63
2022/10/18 07:51:13;;;;;;;7.68;5.20;;;14.90;99.90;;;;;;5030122;28;20380;-63
2022/10/18 07:53:38;;;;;;;7.57;5.20;;;14.90;99.90;;;;;;5032637;28;20029;-63
2022/10/18 07:56:10;;;;;;;12.63;5.90;;;14.90;99.90;;;;;;5032799;28;20029;-63
2022/10/18 07:58:36;;;;;;;7.53;5.70;;;15.00;99.90;;;;;;5030259;28;20477;-63
2022/10/18 08:01:03;;;;;;;8.95;7.15;;;15.00;99.90;;;;;;5032563;28;20025;-63
2022/10/18 08:03:29;;;;;;;9.65;6.75;;;15.00;99.90;;;;;;5032049;28;20021;-63
2022/10/18 08:05:55;;;;;;;9.98;5.85;;;15.00;99.90;;;;;;5032351;28;20025;-63
2022/10/18 08:08:21;;;;;;;10.52;6.35;;;15.00;99.90;;;;;;5032456;28;20500;-63
2022/10/18 08:10:47;;;;;;;6.95;5.65;;;15.10;99.90;;;;;;5030936;28;20056;-63
2022/10/18 08:13:13;;;;;;;8.27;5.57;;;15.10;99.90;;;;;;5024844;28;20440;-63
2022/10/18 08:15:38;;;;;;;7.18;5.10;;;15.20;99.90;;;;;;5032008;28;20037;-63
2022/10/18 08:18:04;;;;;;;7.20;5.50;;;15.20;99.90;;;;;;5032254;28;20057;-63
2022/10/18 08:20:32;;;;;;;7.13;4.82;;;15.20;99.90;;;;;;5031402;28;20552;-63
2022/10/18 08:22:57;;;;;;;8.00;6.05;;;15.20;99.90;;;;;;5031805;28;20029;-63
2022/10/18 08:25:23;;;;;;;7.53;5.50;;;15.20;99.90;;;;;;5031936;28;20025;-63
2022/10/18 08:27:49;;;;;;;8.73;5.53;;;15.20;99.90;;;;;;5020874;28;20044;-63
2022/10/18 08:30:14;;;;;;;7.13;5.97;;;15.30;99.90;;;;;;5031957;28;20442;-63
2022/10/18 08:32:40;;;;;;;10.15;6.13;;;15.40;99.90;;;;;;5027644;28;20588;-63
2022/10/18 08:35:06;;;;;;;6.47;5.82;;;15.50;99.90;;;;;;5025701;28;20501;-63
2022/10/18 08:37:32;;;;;;;6.93;5.32;;;15.60;99.90;;;;;;5027802;28;20048;-63
2022/10/18 08:39:57;;;;;;;9.10;6.78;;;15.60;99.90;;;;;;5032726;28;20029;-63
2022/10/18 08:42:41;;;;;;;10.25;7.72;;;15.60;99.90;;;;;;5031639;28;20053;-63
2022/10/18 08:45:10;;;;;;;8.93;7.25;;;15.60;99.90;;;;;;5032351;28;20034;-63
2022/10/18 08:47:42;;;;;;;7.82;6.35;;;15.60;99.90;;;;;;5031130;28;20025;-64
2022/10/18 08:50:19;;;;;;;9.60;7.20;;;15.60;99.90;;;;;;5032352;28;20068;-63
2022/10/18 08:52:48;;;;;;;8.50;6.95;;;15.70;99.90;;;;;;5022017;28;20104;-63
2022/10/18 08:55:38;;;;;;;8.43;6.57;;;15.70;99.90;;;;;;5031322;28;20026;-63
2022/10/18 08:58:12;;;;;;;8.98;7.00;;;15.70;99.90;;;;;;5028582;28;20021;-64
2022/10/18 09:00:42;;;;;;;8.25;6.15;;;15.70;99.90;;;;;;5031221;28;20032;-63
2022/10/18 09:03:28;;;;;;;7.68;6.10;;;15.70;99.90;;;;;;5031343;28;20013;-63
2022/10/18 09:06:09;;;;;;;8.07;6.78;;;15.70;99.90;;;;;;5031225;28;20108;-63
2022/10/18 09:08:56;;;;;;;7.63;6.30;;;15.80;99.90;;;;;;5026529;28;20025;-63
2022/10/18 09:11:59;;;;;;;12.23;7.18;;;15.90;99.90;;;;;;5031382;28;20139;-63
2022/10/18 09:14:46;;;;;;;7.35;6.43;;;16.10;99.90;;;;;;5030738;28;20028;-63
2022/10/18 09:17:30;;;;;;;11.05;7.32;;;16.20;99.90;;;;;;5031503;28;20024;-64
2022/10/18 09:20:05;;;;;;;8.98;6.75;;;16.30;99.90;;;;;;5030179;28;20029;-63
2022/10/18 09:22:51;;;;;;;8.00;5.55;;;16.40;99.90;;;;;;5030769;28;20032;-63
2022/10/18 09:25:24;;;;;;;8.55;5.65;;;16.50;99.90;;;;;;5031017;28;20406;-63
2022/10/18 09:27:54;;;;;;;9.95;5.82;;;16.60;99.90;;;;;;5031694;28;20056;-63
2022/10/18 09:30:35;;;;;;;8.43;6.20;;;16.70;99.90;;;;;;5022883;28;20076;-63
2022/10/18 09:33:14;;;;;;;8.73;5.65;;;16.90;99.90;;;;;;5025652;28;20032;-63
2022/10/18 09:35:49;;;;;;;9.43;5.80;;;17.00;99.90;;;;;;5032403;28;20042;-63
2022/10/18 09:38:19;;;;;;;8.75;5.25;;;17.00;99.90;;;;;;5029519;28;20025;-63
2022/10/18 09:41:11;;;;;;;7.95;4.55;;;17.10;99.90;;;;;;5031350;28;20033;-63
2022/10/18 09:43:48;;;;;;;6.18;4.47;;;17.20;99.90;;;;;;5015843;28;20049;-63
2022/10/18 09:46:15;;;;;;;8.38;4.90;;;17.40;99.90;;;;;;5028933;28;20399;-63
2022/10/18 09:49:02;;;;;;;6.32;4.57;;;17.50;99.90;;;;;;5024523;28;20499;-63
2022/10/18 09:51:33;;;;;;;6.95;3.85;;;17.80;99.90;;;;;;5026813;28;20092;-63
2022/10/18 09:54:25;;;;;;;5.97;3.95;;;18.00;99.90;;;;;;5030832;28;20017;-64
2022/10/18 09:57:08;;;;;;;9.98;4.32;;;18.30;99.90;;;;;;5020914;28;20033;-64
2022/10/18 09:59:40;;;;;;;5.38;3.63;;;18.60;99.90;;;;;;5013089;28;20022;-64
2022/10/18 10:02:10;;;;;;;4.55;2.90;;;19.00;99.90;;;;;;5030176;28;20025;-64
2022/10/18 10:04:35;;;;;;;4.28;2.47;;;19.50;99.90;;;;;;5032035;28;20500;-64
2022/10/18 10:07:06;;;;;;;4.18;2.50;;;20.40;99.90;;;;;;5032175;28;20033;-64
2022/10/18 10:09:56;;;;;;;3.42;2.05;;;23.30;99.90;;;;;;5032030;28;20120;-64
2022/10/18 10:12:33;;;;;;;3.45;2.05;;;26.90;99.90;;;;;;5034790;28;20436;-64
2022/10/18 10:15:17;;;;;;;4.35;1.83;;;30.20;95.70;;;;;;5025098;28;20028;-64
2022/10/18 10:17:44;;;;;;;3.80;1.73;;;32.80;88.70;;;;;;5017896;28;20378;-64
2022/10/18 10:20:16;;;;;;;3.60;1.55;;;34.90;78.10;;;;;;5028440;28;20501;-63
2022/10/18 10:22:44;;;;;;;3.63;1.30;;;37.20;69.60;;;;;;5016053;28;20044;-63
2022/10/18 10:25:30;;;;;;;2.47;0.95;;;39.20;61.80;;;;;;5016213;28;20049;-63
2022/10/18 10:28:13;;;;;;;3.55;1.65;;;41.10;56.00;;;;;;5016237;28;20438;-62
2022/10/18 10:30:38;;;;;;;2.63;1.10;;;42.20;51.00;;;;;;5021564;28;20025;-63
2022/10/18 10:33:05;;;;;;;2.30;1.05;;;43.60;48.40;;;;;;5026755;28;20029;-63
2022/10/18 10:35:34;;;;;;;2.95;0.95;;;44.80;46.10;;;;;;5033315;28;20026;-63
2022/10/18 10:38:00;;;;;;;2.13;1.08;;;46.00;43.80;;;;;;5034731;28;20025;-63
2022/10/18 10:40:51;;;;;;;2.17;1.02;;;47.20;42.40;;;;;;5028698;28;20172;-63
2022/10/18 10:43:32;;;;;;;3.13;1.20;;;48.40;40.70;;;;;;5028690;28;20171;-63
2022/10/18 10:46:11;;;;;;;2.33;0.95;;;49.40;38.60;;;;;;5032881;28;20428;-63
2022/10/18 10:48:57;;;;;;;2.47;1.40;;;50.60;37.30;;;;;;5031153;28;20045;-63
2022/10/18 10:51:30;;;;;;;2.60;1.02;;;51.50;35.90;;;;;;5027334;28;20028;-63
2022/10/18 10:54:07;;;;;;;2.72;1.30;;;52.00;34.90;;;;;;5034694;28;20045;-63
2022/10/18 10:56:36;;;;;;;2.00;1.40;;;52.60;33.80;;;;;;5033866;28;20450;-63
2022/10/18 10:59:14;;;;;;;3.33;1.60;;;53.40;33.00;;;;;;5034616;28;20025;-63
2022/10/18 11:01:40;;;;;;;2.40;1.35;;;53.40;32.40;;;;;;5030489;28;20072;-64
2022/10/18 11:04:43;;;;;;;3.47;1.23;;;53.90;31.60;;;;;;5035299;28;20532;-63
2022/10/18 11:07:08;;;;;;;2.78;1.55;;;54.20;30.90;;;;;;5033087;28;20509;-63
2022/10/18 11:09:54;;;;;;;3.13;1.42;;;54.10;30.00;;;;;;5033985;28;20033;-63
2022/10/18 11:12:33;;;;;;;3.13;1.50;;;54.00;29.80;;;;;;5034689;28;20040;-63
2022/10/18 11:15:23;;;;;;;3.63;1.73;;;53.70;29.70;;;;;;5034450;28;20511;-63
2022/10/18 11:18:19;;;;;;;1.98;1.35;;;53.30;30.30;;;;;;5033400;28;20394;-64
2022/10/18 11:20:59;;;;;;;2.27;1.60;;;53.00;29.60;;;;;;5030297;28;20021;-64
2022/10/18 11:23:32;;;;;;;3.45;2.00;;;52.70;29.60;;;;;;5033141;28;20033;-63
2022/10/18 11:26:09;;;;;;;3.05;2.15;;;52.40;29.50;;;;;;5030516;28;20029;-64
2022/10/18 11:28:35;;;;;;;4.65;1.95;;;52.40;29.60;;;;;;5030905;28;20107;-63
2022/10/18 11:31:40;;;;;;;4.05;1.90;;;52.20;29.40;;;;;;5032904;28;20064;-64
2022/10/18 11:34:24;;;;;;;2.80;1.80;;;52.00;29.50;;;;;;5027390;28;20053;-64
2022/10/18 11:37:01;;;;;;;3.53;2.00;;;51.70;29.50;;;;;;5023403;28;20256;-64
2022/10/18 11:39:52;;;;;;;3.90;2.20;;;51.60;29.60;;;;;;5034217;28;20076;-64
2022/10/18 11:42:47;;;;;;;2.85;1.77;;;51.80;29.60;;;;;;5034047;28;20408;-63
2022/10/18 11:45:53;;;;;;;2.13;1.92;;;51.80;29.10;;;;;;5034370;28;20473;-64
2022/10/18 11:48:40;;;;;;;4.10;2.20;;;51.60;29.20;;;;;;5025159;28;20156;-64
2022/10/18 11:51:38;;;;;;;3.40;2.20;;;51.50;29.30;;;;;;5021797;28;20025;-63
2022/10/18 11:54:44;;;;;;;4.03;2.40;;;51.20;29.20;;;;;;5033702;28;20140;-64
2022/10/18 11:57:30;;;;;;;4.55;1.90;;;51.10;29.10;;;;;;5033046;28;20045;-64
2022/10/18 12:00:05;;;;;;;;;;;51.00;29.00;;;;;;5033663;28;20033;-63
2022/10/18 12:03:08;;;;;;;3.47;2.13;;;50.80;29.10;;;;;;5032718;28;20405;-63
2022/10/18 12:05:36;;;;;;;3.28;2.00;;;50.80;29.20;;;;;;5026771;28;20072;-63
2022/10/18 12:08:36;;;;;;;4.07;2.42;;;50.90;29.00;;;;;;5020300;28;20075;-63
2022/10/18 12:11:08;;;;;;;2.88;2.05;;;51.10;28.90;;;;;;5013972;28;20034;-63
2022/10/18 12:13:43;;;;;;;3.92;1.90;;;51.10;28.70;;;;;;5023886;28;20033;-63
2022/10/18 12:16:09;;;;;;;2.22;1.90;;;50.90;28.60;;;;;;5032248;28;20020;-64
2022/10/18 12:18:46;;;;;;;2.40;2.00;;;50.80;28.80;;;;;;5024956;28;20104;-63
2022/10/18 12:21:12;;;;;;;4.35;1.88;;;50.50;28.70;;;;;;5029759;28;20014;-63
2022/10/18 12:23:54;;;;;;;3.33;1.93;;;50.30;28.70;;;;;;5026923;28;20392;-63
2022/10/18 12:26:21;;;;;;;3.65;1.90;;;50.50;28.70;;;;;;5045327;28;20022;-63
2022/10/18 12:28:57;;;;;;;5.00;1.70;;;50.40;28.90;;;;;;5018987;28;20145;-63
2022/10/18 12:31:53;;;;;;;2.50;1.97;;;50.40;28.70;;;;;;5033539;28;20053;-63
2022/10/18 12:34:18;;;;;;;2.97;1.88;;;50.30;28.80;;;;;;5026780;28;20260;-63
2022/10/18 12:37:08;;;;;;;3.50;1.90;;;50.40;28.60;;;;;;5033231;28;20032;-63
2022/10/18 12:39:51;;;;;;;3.03;1.90;;;50.50;28.70;;;;;;5032915;28;20017;-63
2022/10/18 12:42:40;;;;;;;2.85;2.10;;;50.40;28.60;;;;;;5031264;28;20037;-63
2022/10/18 12:45:12;;;;;;;3.05;1.70;;;50.30;28.40;;;;;;5023430;28;20045;-63
2022/10/18 12:47:39;;;;;;;3.70;2.15;;;49.80;28.50;;;;;;5032375;28;20026;-63
2022/10/18 12:50:26;;;;;;;3.15;1.90;;;49.70;28.70;;;;;;5032500;28;20108;-63
2022/10/18 12:53:11;;;;;;;3.40;2.10;;;49.50;28.60;;;;;;5021055;28;20022;-63
2022/10/18 12:55:43;;;;;;;2.27;1.60;;;49.50;28.80;;;;;;5031341;28;20398;-63
2022/10/18 12:58:22;;;;;;;3.05;2.03;;;49.30;28.40;;;;;;5031420;28;20052;-63
2022/10/18 13:00:48;;;;;;;2.95;1.90;;;49.30;28.50;;;;;;5031827;28;20014;-63
2022/10/18 13:03:19;;;;;;;3.65;1.90;;;49.20;28.60;;;;;;5030316;28;20033;-63
2022/10/18 13:05:50;;;;;;;3.28;1.70;;;49.10;28.70;;;;;;5047158;28;20041;-63